VKG8CB ENGM-ENHD
Flight info
| Callsign | VKG8CB |
|---|---|
| Flight time | 0h 45m |
| Altitude | 28000 |
| Route | ATLAP DCT IPMOD DCT ULVOS |
| Aircraft | A321/M-SDE3FGHIRWY/LB1 |
Departure
| Time | 2026-05-07 12:28 |
|---|---|
| Airport | Oslo-Gardermoen International Airport (ENGM) |
Arrival
| Time | 2026-05-07 13:14 |
|---|---|
| Airport | Haugesund Airport, Karmøy (ENHD) |
| Time | Latitude | Longitude | Altitude | Speed | Heading |
|---|---|---|---|---|---|
| 2026-05-07 11:39 | 60.19385 | 11.08902 | 688 ft | 0 kts | 195° |
| 2026-05-07 12:18 | 60.19395 | 11.08907 | 685 ft | 4 kts | 196° |
| 2026-05-07 12:18 | 60.19421 | 11.08922 | 683 ft | 4 kts | 196° |
| 2026-05-07 12:18 | 60.19428 | 11.08926 | 689 ft | 0 kts | 196° |
| 2026-05-07 12:23 | 60.19425 | 11.08903 | 684 ft | 2 kts | 292° |
| 2026-05-07 12:24 | 60.19483 | 11.08827 | 686 ft | 15 kts | 311° |
| 2026-05-07 12:24 | 60.19521 | 11.08632 | 685 ft | 16 kts | 286° |
| 2026-05-07 12:24 | 60.19602 | 11.08570 | 685 ft | 17 kts | 19° |
| 2026-05-07 12:24 | 60.19758 | 11.08659 | 682 ft | 25 kts | 16° |
| 2026-05-07 12:25 | 60.19925 | 11.08756 | 682 ft | 25 kts | 15° |
| 2026-05-07 12:25 | 60.20082 | 11.08847 | 681 ft | 22 kts | 16° |
| 2026-05-07 12:25 | 60.20223 | 11.08929 | 683 ft | 21 kts | 16° |
| 2026-05-07 12:25 | 60.20365 | 11.09011 | 683 ft | 21 kts | 16° |
| 2026-05-07 12:26 | 60.20504 | 11.09093 | 683 ft | 19 kts | 17° |
| 2026-05-07 12:26 | 60.20621 | 11.09132 | 682 ft | 15 kts | 336° |
| 2026-05-07 12:26 | 60.20661 | 11.08952 | 681 ft | 13 kts | 286° |
| 2026-05-07 12:26 | 60.20686 | 11.08778 | 684 ft | 12 kts | 286° |
| 2026-05-07 12:27 | 60.20682 | 11.08637 | 681 ft | 10 kts | 214° |
| 2026-05-07 12:27 | 60.20645 | 11.08610 | 683 ft | 0 kts | 197° |
| 2026-05-07 12:27 | 60.20620 | 11.08595 | 681 ft | 20 kts | 196° |
| 2026-05-07 12:27 | 60.20216 | 11.08362 | 683 ft | 96 kts | 196° |
| 2026-05-07 12:28 | 60.19377 | 11.07874 | 682 ft | 152 kts | 197° |
| 2026-05-07 12:28 | 60.18337 | 11.07245 | 1167 ft | 157 kts | 198° |
| 2026-05-07 12:28 | 60.17294 | 11.06546 | 1861 ft | 157 kts | 204° |
| 2026-05-07 12:28 | 60.16418 | 11.05281 | 2546 ft | 156 kts | 230° |
| 2026-05-07 12:29 | 60.15875 | 11.03418 | 3211 ft | 155 kts | 248° |
| 2026-05-07 12:29 | 60.15454 | 11.01433 | 3861 ft | 155 kts | 247° |
| 2026-05-07 12:29 | 60.15012 | 10.99379 | 4271 ft | 169 kts | 247° |
| 2026-05-07 12:29 | 60.14605 | 10.97001 | 4463 ft | 192 kts | 253° |
| 2026-05-07 12:30 | 60.14212 | 10.94280 | 4680 ft | 214 kts | 255° |
| 2026-05-07 12:30 | 60.13789 | 10.91245 | 4881 ft | 239 kts | 255° |
| 2026-05-07 12:30 | 60.13326 | 10.87915 | 5366 ft | 258 kts | 255° |
| 2026-05-07 12:30 | 60.12832 | 10.84363 | 6234 ft | 264 kts | 255° |
| 2026-05-07 12:31 | 60.12331 | 10.80787 | 7109 ft | 268 kts | 255° |
| 2026-05-07 12:31 | 60.11821 | 10.77188 | 7997 ft | 270 kts | 255° |
| 2026-05-07 12:31 | 60.11302 | 10.73555 | 8894 ft | 272 kts | 255° |
| 2026-05-07 12:31 | 60.10781 | 10.69898 | 9778 ft | 274 kts | 255° |
| 2026-05-07 12:32 | 60.10262 | 10.66242 | 10448 ft | 284 kts | 255° |
| 2026-05-07 12:32 | 60.09693 | 10.62230 | 10669 ft | 307 kts | 255° |
| 2026-05-07 12:32 | 60.09091 | 10.58006 | 10862 ft | 330 kts | 255° |
| 2026-05-07 12:32 | 60.08446 | 10.53521 | 11393 ft | 339 kts | 255° |
| 2026-05-07 12:33 | 60.07122 | 10.44384 | 12947 ft | 344 kts | 255° |
| 2026-05-07 12:33 | 60.06451 | 10.39761 | 13748 ft | 347 kts | 255° |
| 2026-05-07 12:33 | 60.05771 | 10.35106 | 14467 ft | 349 kts | 255° |
| 2026-05-07 12:34 | 60.05086 | 10.30436 | 15131 ft | 352 kts | 255° |
| 2026-05-07 12:34 | 60.04397 | 10.25723 | 15814 ft | 354 kts | 255° |
| 2026-05-07 12:34 | 60.03702 | 10.20986 | 16495 ft | 356 kts | 255° |
| 2026-05-07 12:34 | 60.03000 | 10.16227 | 17165 ft | 358 kts | 255° |
| 2026-05-07 12:35 | 60.02293 | 10.11433 | 17829 ft | 360 kts | 255° |
| 2026-05-07 12:35 | 60.01585 | 10.06627 | 18461 ft | 362 kts | 255° |
| 2026-05-07 12:35 | 60.00868 | 10.01784 | 19020 ft | 364 kts | 255° |
| 2026-05-07 12:35 | 60.00149 | 9.96932 | 19594 ft | 365 kts | 255° |
| 2026-05-07 12:36 | 59.99424 | 9.92058 | 20145 ft | 367 kts | 255° |
| 2026-05-07 12:36 | 59.98691 | 9.87152 | 20696 ft | 369 kts | 255° |
| 2026-05-07 12:36 | 59.97952 | 9.82237 | 21221 ft | 371 kts | 255° |
| 2026-05-07 12:36 | 59.97205 | 9.77295 | 21776 ft | 373 kts | 256° |
| 2026-05-07 12:37 | 59.96454 | 9.72334 | 22298 ft | 375 kts | 256° |
| 2026-05-07 12:37 | 59.95696 | 9.67340 | 22825 ft | 377 kts | 256° |
| 2026-05-07 12:37 | 59.94935 | 9.62317 | 23348 ft | 379 kts | 256° |
| 2026-05-07 12:37 | 59.94168 | 9.57275 | 23825 ft | 381 kts | 256° |
| 2026-05-07 12:38 | 59.93396 | 9.52222 | 24239 ft | 383 kts | 256° |
| 2026-05-07 12:38 | 59.92615 | 9.47128 | 24661 ft | 384 kts | 256° |
| 2026-05-07 12:38 | 59.91831 | 9.42017 | 25071 ft | 386 kts | 256° |
| 2026-05-07 12:38 | 59.91040 | 9.36884 | 25495 ft | 388 kts | 256° |
| 2026-05-07 12:39 | 59.90244 | 9.31734 | 25907 ft | 389 kts | 256° |
| 2026-05-07 12:39 | 59.89439 | 9.26575 | 26293 ft | 391 kts | 256° |
| 2026-05-07 12:39 | 59.88631 | 9.21400 | 26683 ft | 393 kts | 256° |
| 2026-05-07 12:39 | 59.87815 | 9.16185 | 27065 ft | 395 kts | 256° |
| 2026-05-07 12:40 | 59.86998 | 9.10961 | 27442 ft | 397 kts | 256° |
| 2026-05-07 12:40 | 59.86175 | 9.05707 | 27815 ft | 398 kts | 256° |
| 2026-05-07 12:40 | 59.85345 | 9.00435 | 28033 ft | 400 kts | 256° |
| 2026-05-07 12:40 | 59.84517 | 8.95202 | 28092 ft | 392 kts | 256° |
| 2026-05-07 12:41 | 59.82889 | 8.84943 | 28087 ft | 388 kts | 256° |
| 2026-05-07 12:41 | 59.81269 | 8.74803 | 28086 ft | 387 kts | 256° |
| 2026-05-07 12:42 | 59.79631 | 8.64620 | 28104 ft | 387 kts | 256° |
| 2026-05-07 12:42 | 59.77989 | 8.54437 | 28091 ft | 387 kts | 255° |
| 2026-05-07 12:43 | 59.76344 | 8.44270 | 28092 ft | 387 kts | 255° |
| 2026-05-07 12:43 | 59.74684 | 8.34119 | 28105 ft | 387 kts | 255° |
| 2026-05-07 12:44 | 59.73288 | 8.23866 | 28103 ft | 385 kts | 260° |
| 2026-05-07 12:44 | 59.72107 | 8.13534 | 28114 ft | 385 kts | 259° |
| 2026-05-07 12:45 | 59.70910 | 8.03197 | 28109 ft | 385 kts | 259° |
| 2026-05-07 12:45 | 59.69704 | 7.92872 | 28098 ft | 385 kts | 259° |
| 2026-05-07 12:46 | 59.68497 | 7.82560 | 28130 ft | 385 kts | 259° |
| 2026-05-07 12:46 | 59.67896 | 7.77401 | 27891 ft | 384 kts | 259° |
| 2026-05-07 12:46 | 59.67290 | 7.72251 | 27191 ft | 383 kts | 259° |
| 2026-05-07 12:47 | 59.66683 | 7.67159 | 26616 ft | 378 kts | 259° |
| 2026-05-07 12:47 | 59.66078 | 7.62129 | 26039 ft | 373 kts | 258° |
| 2026-05-07 12:47 | 59.65483 | 7.57164 | 25517 ft | 370 kts | 258° |
| 2026-05-07 12:47 | 59.64892 | 7.52237 | 24969 ft | 367 kts | 258° |
| 2026-05-07 12:48 | 59.64301 | 7.47337 | 24428 ft | 365 kts | 258° |
| 2026-05-07 12:48 | 59.63712 | 7.42473 | 23894 ft | 363 kts | 258° |
| 2026-05-07 12:48 | 59.63124 | 7.37637 | 23308 ft | 360 kts | 258° |
| 2026-05-07 12:48 | 59.62539 | 7.32831 | 22788 ft | 358 kts | 258° |
| 2026-05-07 12:49 | 59.61955 | 7.28060 | 22272 ft | 356 kts | 258° |
| 2026-05-07 12:49 | 59.61375 | 7.23329 | 21794 ft | 354 kts | 258° |
| 2026-05-07 12:49 | 59.60800 | 7.18668 | 21316 ft | 352 kts | 258° |
| 2026-05-07 12:49 | 59.60220 | 7.13980 | 20849 ft | 351 kts | 257° |
| 2026-05-07 12:50 | 59.59641 | 7.09308 | 20383 ft | 350 kts | 257° |
| 2026-05-07 12:50 | 59.59063 | 7.04657 | 19942 ft | 348 kts | 257° |
| 2026-05-07 12:50 | 59.58486 | 7.00020 | 19491 ft | 347 kts | 257° |
| 2026-05-07 12:50 | 59.57911 | 6.95412 | 19049 ft | 345 kts | 257° |
| 2026-05-07 12:51 | 59.57337 | 6.90818 | 18654 ft | 344 kts | 257° |
| 2026-05-07 12:51 | 59.56765 | 6.86247 | 18222 ft | 343 kts | 257° |
| 2026-05-07 12:51 | 59.56194 | 6.81702 | 17800 ft | 341 kts | 257° |
| 2026-05-07 12:51 | 59.55619 | 6.77171 | 17378 ft | 340 kts | 257° |
| 2026-05-07 12:52 | 59.55043 | 6.72658 | 16968 ft | 338 kts | 256° |
| 2026-05-07 12:52 | 59.54470 | 6.68178 | 16517 ft | 336 kts | 256° |
| 2026-05-07 12:52 | 59.53901 | 6.63715 | 16092 ft | 335 kts | 256° |
| 2026-05-07 12:52 | 59.53335 | 6.59285 | 15654 ft | 333 kts | 256° |
| 2026-05-07 12:53 | 59.52772 | 6.54875 | 15214 ft | 331 kts | 256° |
| 2026-05-07 12:53 | 59.52400 | 6.51965 | 14909 ft | 330 kts | 256° |
| 2026-05-07 12:53 | 59.51838 | 6.47586 | 14434 ft | 329 kts | 256° |
| 2026-05-07 12:53 | 59.51276 | 6.43234 | 13972 ft | 327 kts | 256° |
| 2026-05-07 12:54 | 59.50715 | 6.38901 | 13459 ft | 326 kts | 256° |
| 2026-05-07 12:54 | 59.50151 | 6.34592 | 12981 ft | 324 kts | 255° |
| 2026-05-07 12:54 | 59.49589 | 6.30318 | 12486 ft | 322 kts | 255° |
| 2026-05-07 12:54 | 59.49027 | 6.26053 | 12004 ft | 321 kts | 255° |
| 2026-05-07 12:55 | 59.48470 | 6.21807 | 11502 ft | 320 kts | 255° |
| 2026-05-07 12:55 | 59.47913 | 6.17576 | 11022 ft | 318 kts | 255° |
| 2026-05-07 12:55 | 59.47368 | 6.13443 | 10870 ft | 306 kts | 255° |
| 2026-05-07 12:55 | 59.46844 | 6.09475 | 10741 ft | 293 kts | 254° |
| 2026-05-07 12:56 | 59.46340 | 6.05679 | 10614 ft | 282 kts | 254° |
| 2026-05-07 12:56 | 59.45850 | 6.01999 | 10387 ft | 275 kts | 254° |
| 2026-05-07 12:56 | 59.45368 | 5.98388 | 10140 ft | 272 kts | 254° |
| 2026-05-07 12:56 | 59.44891 | 5.94843 | 9962 ft | 271 kts | 253° |
| 2026-05-07 12:57 | 59.44400 | 5.91208 | 9817 ft | 272 kts | 253° |
| 2026-05-07 12:57 | 59.43918 | 5.87627 | 9682 ft | 272 kts | 253° |
| 2026-05-07 12:57 | 59.43442 | 5.84082 | 9537 ft | 272 kts | 253° |
| 2026-05-07 12:57 | 59.42960 | 5.80486 | 9081 ft | 272 kts | 253° |
| 2026-05-07 12:58 | 59.42474 | 5.76885 | 8599 ft | 273 kts | 253° |
| 2026-05-07 12:58 | 59.41986 | 5.73276 | 8105 ft | 274 kts | 253° |
| 2026-05-07 12:58 | 59.41495 | 5.69665 | 7716 ft | 273 kts | 253° |
| 2026-05-07 12:58 | 59.41003 | 5.66056 | 7303 ft | 273 kts | 253° |
| 2026-05-07 12:59 | 59.40510 | 5.62468 | 6959 ft | 271 kts | 253° |
| 2026-05-07 12:59 | 59.40019 | 5.58890 | 6544 ft | 272 kts | 252° |
| 2026-05-07 12:59 | 59.39529 | 5.55327 | 5998 ft | 270 kts | 252° |
| 2026-05-07 12:59 | 59.39042 | 5.51769 | 5430 ft | 269 kts | 252° |
| 2026-05-07 13:00 | 59.38558 | 5.48238 | 4848 ft | 268 kts | 252° |
| 2026-05-07 13:00 | 59.38075 | 5.44740 | 4395 ft | 263 kts | 253° |
| 2026-05-07 13:00 | 59.37600 | 5.41305 | 3914 ft | 259 kts | 253° |
| 2026-05-07 13:00 | 59.37134 | 5.37946 | 3631 ft | 248 kts | 253° |
| 2026-05-07 13:01 | 59.36694 | 5.34783 | 3509 ft | 234 kts | 253° |
| 2026-05-07 13:01 | 59.36278 | 5.31774 | 3297 ft | 225 kts | 253° |
| 2026-05-07 13:01 | 59.35864 | 5.28818 | 3025 ft | 221 kts | 253° |
| 2026-05-07 13:01 | 59.35471 | 5.25974 | 2822 ft | 212 kts | 253° |
| 2026-05-07 13:02 | 59.35093 | 5.23221 | 2585 ft | 207 kts | 257° |
| 2026-05-07 13:02 | 59.35084 | 5.20484 | 2474 ft | 205 kts | 280° |
| 2026-05-07 13:02 | 59.35537 | 5.17859 | 2272 ft | 203 kts | 292° |
| 2026-05-07 13:02 | 59.36094 | 5.15332 | 2104 ft | 203 kts | 292° |
| 2026-05-07 13:03 | 59.36655 | 5.12753 | 2028 ft | 203 kts | 290° |
| 2026-05-07 13:03 | 59.37153 | 5.10198 | 2031 ft | 204 kts | 290° |
| 2026-05-07 13:03 | 59.37666 | 5.07610 | 2027 ft | 204 kts | 290° |
| 2026-05-07 13:03 | 59.38165 | 5.05010 | 2022 ft | 204 kts | 290° |
| 2026-05-07 13:04 | 59.38681 | 5.02415 | 2022 ft | 203 kts | 291° |
| 2026-05-07 13:04 | 59.39228 | 4.99854 | 2084 ft | 204 kts | 292° |
| 2026-05-07 13:04 | 59.39753 | 4.97394 | 2101 ft | 184 kts | 292° |
| 2026-05-07 13:04 | 59.40257 | 4.95216 | 2065 ft | 170 kts | 301° |
| 2026-05-07 13:05 | 59.41061 | 4.93608 | 2005 ft | 164 kts | 329° |
| 2026-05-07 13:05 | 59.42135 | 4.93008 | 1975 ft | 160 kts | 3° |
| 2026-05-07 13:05 | 59.43155 | 4.93747 | 1960 ft | 158 kts | 43° |
| 2026-05-07 13:05 | 59.43718 | 4.95534 | 1975 ft | 155 kts | 79° |
| 2026-05-07 13:06 | 59.43670 | 4.97606 | 1976 ft | 153 kts | 108° |
| 2026-05-07 13:06 | 59.43356 | 4.99613 | 1990 ft | 154 kts | 109° |
| 2026-05-07 13:06 | 59.43007 | 5.01591 | 1977 ft | 153 kts | 110° |
| 2026-05-07 13:06 | 59.42632 | 5.03551 | 1978 ft | 153 kts | 112° |
| 2026-05-07 13:07 | 59.42190 | 5.05438 | 1967 ft | 152 kts | 126° |
| 2026-05-07 13:07 | 59.41465 | 5.06934 | 1963 ft | 152 kts | 139° |
| 2026-05-07 13:07 | 59.40669 | 5.08290 | 1820 ft | 151 kts | 139° |
| 2026-05-07 13:07 | 59.39908 | 5.09708 | 1701 ft | 151 kts | 136° |
| 2026-05-07 13:08 | 59.39115 | 5.11040 | 1581 ft | 150 kts | 152° |
| 2026-05-07 13:08 | 59.38110 | 5.11539 | 1589 ft | 151 kts | 179° |
| 2026-05-07 13:08 | 59.37060 | 5.11465 | 1598 ft | 151 kts | 182° |
| 2026-05-07 13:08 | 59.36009 | 5.11378 | 1596 ft | 151 kts | 182° |
| 2026-05-07 13:09 | 59.34968 | 5.11483 | 1604 ft | 151 kts | 159° |
| 2026-05-07 13:09 | 59.34134 | 5.12723 | 1614 ft | 152 kts | 139° |
| 2026-05-07 13:09 | 59.33367 | 5.14145 | 1619 ft | 152 kts | 136° |
| 2026-05-07 13:09 | 59.32610 | 5.15600 | 1619 ft | 152 kts | 136° |
| 2026-05-07 13:10 | 59.31835 | 5.17043 | 1594 ft | 156 kts | 138° |
| 2026-05-07 13:10 | 59.31052 | 5.18480 | 1594 ft | 157 kts | 137° |
| 2026-05-07 13:10 | 59.30258 | 5.19943 | 1588 ft | 157 kts | 138° |
| 2026-05-07 13:10 | 59.29457 | 5.21393 | 1585 ft | 157 kts | 139° |
| 2026-05-07 13:11 | 59.28647 | 5.22823 | 1590 ft | 157 kts | 139° |
| 2026-05-07 13:11 | 59.28020 | 5.24559 | 1516 ft | 158 kts | 111° |
| 2026-05-07 13:11 | 59.27902 | 5.26689 | 1427 ft | 159 kts | 81° |
| 2026-05-07 13:11 | 59.28331 | 5.28663 | 1329 ft | 158 kts | 50° |
| 2026-05-07 13:12 | 59.29218 | 5.29872 | 1254 ft | 156 kts | 16° |
| 2026-05-07 13:12 | 59.30252 | 5.29687 | 1174 ft | 152 kts | 323° |
| 2026-05-07 13:12 | 59.30917 | 5.28223 | 992 ft | 140 kts | 305° |
| 2026-05-07 13:12 | 59.31544 | 5.26794 | 782 ft | 137 kts | 314° |
| 2026-05-07 13:13 | 59.32219 | 5.25483 | 584 ft | 136 kts | 312° |
| 2026-05-07 13:13 | 59.32874 | 5.24155 | 393 ft | 135 kts | 311° |
| 2026-05-07 13:13 | 59.33530 | 5.22849 | 202 ft | 134 kts | 312° |
| 2026-05-07 13:13 | 59.34163 | 5.21578 | 89 ft | 122 kts | 312° |
| 2026-05-07 13:14 | 59.34626 | 5.20642 | 82 ft | 55 kts | 314° |
| 2026-05-07 13:14 | 59.34776 | 5.20341 | 68 ft | 18 kts | 314° |
| 2026-05-07 13:14 | 59.34826 | 5.20240 | 71 ft | 11 kts | 314° |
| 2026-05-07 13:14 | 59.34897 | 5.20144 | 64 ft | 9 kts | 314° |
| 2026-05-07 13:15 | 59.34876 | 5.20138 | 66 ft | 9 kts | 138° |
| 2026-05-07 13:15 | 59.34801 | 5.20287 | 71 ft | 20 kts | 134° |
| 2026-05-07 13:15 | 59.34708 | 5.20475 | 70 ft | 18 kts | 134° |
| 2026-05-07 13:15 | 59.34623 | 5.20645 | 82 ft | 17 kts | 134° |
| 2026-05-07 13:16 | 59.34538 | 5.20817 | 84 ft | 23 kts | 134° |
| 2026-05-07 13:16 | 59.34395 | 5.21105 | 86 ft | 27 kts | 134° |
| 2026-05-07 13:16 | 59.34344 | 5.21279 | 86 ft | 9 kts | 73° |
| 2026-05-07 13:16 | 59.34368 | 5.21336 | 88 ft | 11 kts | 44° |
| 2026-05-07 13:17 | 59.34409 | 5.21414 | 86 ft | 6 kts | 45° |
| 2026-05-07 13:17 | 59.34399 | 5.21523 | 89 ft | 9 kts | 103° |
| 2026-05-07 13:17 | 59.34417 | 5.21588 | 89 ft | 2 kts | 44° |
| 2026-05-07 13:17 | 59.34424 | 5.21603 | 89 ft | 1 kts | 44° |
| 2026-05-07 13:18 | 59.34425 | 5.21605 | 89 ft | 0 kts | 45° |